sensor_id;sensor_type;location;lat;lon;timestamp;temperature;humidity
26613;DHT22;14248;57.652;11.908;2023-05-27T11:30:25;22.40;57.90
26613;DHT22;14248;57.652;11.908;2023-05-27T11:50:18;18.80;95.70
26613;DHT22;14248;57.652;11.908;2023-05-27T11:52:54;19.50;95.20
26613;DHT22;14248;57.652;11.908;2023-05-27T11:55:21;19.50;95.10
26613;DHT22;14248;57.652;11.908;2023-05-27T12:05:08;19.70;95.00
26613;DHT22;14248;57.652;11.908;2023-05-27T12:07:34;19.80;93.20
26613;DHT22;14248;57.652;11.908;2023-05-27T12:10:01;19.60;93.70
26613;DHT22;14248;57.652;11.908;2023-05-27T12:12:27;19.70;94.00
26613;DHT22;14248;57.652;11.908;2023-05-27T12:44:11;19.80;93.80
26613;DHT22;14248;57.652;11.908;2023-05-27T12:46:37;20.10;91.90
26613;DHT22;14248;57.652;11.908;2023-05-27T12:49:03;20.00;92.70
26613;DHT22;14248;57.652;11.908;2023-05-27T12:51:30;20.20;92.60
26613;DHT22;14248;57.652;11.908;2023-05-27T12:53:58;20.30;91.80
26613;DHT22;14248;57.652;11.908;2023-05-27T12:56:24;20.30;91.40
26613;DHT22;14248;57.652;11.908;2023-05-27T12:58:49;20.30;91.30
26613;DHT22;14248;57.652;11.908;2023-05-27T13:01:15;20.20;91.50
26613;DHT22;14248;57.652;11.908;2023-05-27T13:03:41;20.10;91.50
26613;DHT22;14248;57.652;11.908;2023-05-27T13:06:06;20.10;91.50
26613;DHT22;14248;57.652;11.908;2023-05-27T13:08:33;20.10;91.50
26613;DHT22;14248;57.652;11.908;2023-05-27T13:10:58;20.20;91.40
26613;DHT22;14248;57.652;11.908;2023-05-27T13:13:24;20.20;91.20
26613;DHT22;14248;57.652;11.908;2023-05-27T13:15:50;20.30;91.10
26613;DHT22;14248;57.652;11.908;2023-05-27T13:28:02;20.40;90.50
26613;DHT22;14248;57.652;11.908;2023-05-27T14:11:57;23.40;84.70
26613;DHT22;14248;57.652;11.908;2023-05-27T14:31:27;28.80;59.50
26613;DHT22;14248;57.652;11.908;2023-05-27T14:33:53;29.90;55.30
26613;DHT22;14248;57.652;11.908;2023-05-27T14:38:45;29.40;55.60
26613;DHT22;14248;57.652;11.908;2023-05-27T14:41:11;28.80;57.10
26613;DHT22;14248;57.652;11.908;2023-05-27T14:43:37;28.90;56.90
26613;DHT22;14248;57.652;11.908;2023-05-27T14:50:55;29.10;57.00
26613;DHT22;14248;57.652;11.908;2023-05-27T14:55:47;30.30;55.70
26613;DHT22;14248;57.652;11.908;2023-05-27T14:58:14;31.10;54.80
26613;DHT22;14248;57.652;11.908;2023-05-27T15:00:40;31.40;53.60
26613;DHT22;14248;57.652;11.908;2023-05-27T15:03:06;31.60;52.30
26613;DHT22;14248;57.652;11.908;2023-05-27T15:05:32;31.60;53.40
26613;DHT22;14248;57.652;11.908;2023-05-27T15:07:57;31.60;50.90
26613;DHT22;14248;57.652;11.908;2023-05-27T15:10:24;31.00;52.00
26613;DHT22;14248;57.652;11.908;2023-05-27T15:12:50;30.70;52.60
26613;DHT22;14248;57.652;11.908;2023-05-27T15:15:18;30.80;52.50
26613;DHT22;14248;57.652;11.908;2023-05-27T15:17:46;31.00;53.10
26613;DHT22;14248;57.652;11.908;2023-05-27T15:20:16;31.10;52.20
26613;DHT22;14248;57.652;11.908;2023-05-27T15:22:42;31.20;51.80
26613;DHT22;14248;57.652;11.908;2023-05-27T15:25:09;31.20;51.40
26613;DHT22;14248;57.652;11.908;2023-05-27T15:27:34;31.20;52.00
26613;DHT22;14248;57.652;11.908;2023-05-27T15:30:03;31.30;51.80
26613;DHT22;14248;57.652;11.908;2023-05-27T15:32:29;31.40;51.90
26613;DHT22;14248;57.652;11.908;2023-05-27T15:34:55;31.50;51.50
26613;DHT22;14248;57.652;11.908;2023-05-27T15:37:22;31.60;51.90
26613;DHT22;14248;57.652;11.908;2023-05-27T15:39:48;31.70;50.80
26613;DHT22;14248;57.652;11.908;2023-05-27T15:42:14;31.80;50.30
26613;DHT22;14248;57.652;11.908;2023-05-27T15:44:40;31.60;51.20
26613;DHT22;14248;57.652;11.908;2023-05-27T15:47:05;31.80;51.50
26613;DHT22;14248;57.652;11.908;2023-05-27T15:49:31;31.90;51.20
26613;DHT22;14248;57.652;11.908;2023-05-27T15:51:57;32.20;50.40
26613;DHT22;14248;57.652;11.908;2023-05-27T15:54:22;32.20;49.70
26613;DHT22;14248;57.652;11.908;2023-05-27T15:56:48;31.90;49.60
26613;DHT22;14248;57.652;11.908;2023-05-27T15:59:14;31.70;50.30
26613;DHT22;14248;57.652;11.908;2023-05-27T16:01:39;31.70;51.00
26613;DHT22;14248;57.652;11.908;2023-05-27T16:04:05;32.00;50.50
26613;DHT22;14248;57.652;11.908;2023-05-27T16:06:32;32.40;50.70
26613;DHT22;14248;57.652;11.908;2023-05-27T16:08:58;32.50;49.90
26613;DHT22;14248;57.652;11.908;2023-05-27T16:11:24;32.60;50.00
26613;DHT22;14248;57.652;11.908;2023-05-27T16:13:49;32.60;49.40
26613;DHT22;14248;57.652;11.908;2023-05-27T16:16:15;32.50;49.60
26613;DHT22;14248;57.652;11.908;2023-05-27T16:18:41;32.30;50.00
26613;DHT22;14248;57.652;11.908;2023-05-27T16:21:07;32.30;50.40
26613;DHT22;14248;57.652;11.908;2023-05-27T16:23:33;32.30;50.30
26613;DHT22;14248;57.652;11.908;2023-05-27T16:25:58;32.30;50.60
26613;DHT22;14248;57.652;11.908;2023-05-27T16:28:24;32.40;50.80
26613;DHT22;14248;57.652;11.908;2023-05-27T16:30:50;32.50;49.60
26613;DHT22;14248;57.652;11.908;2023-05-27T16:33:16;32.20;49.90
26613;DHT22;14248;57.652;11.908;2023-05-27T16:35:41;32.10;50.10
26613;DHT22;14248;57.652;11.908;2023-05-27T16:38:07;32.10;49.90
26613;DHT22;14248;57.652;11.908;2023-05-27T16:40:33;31.80;50.10
26613;DHT22;14248;57.652;11.908;2023-05-27T16:42:58;31.30;50.40
26613;DHT22;14248;57.652;11.908;2023-05-27T16:45:24;31.00;51.50
26613;DHT22;14248;57.652;11.908;2023-05-27T16:47:50;30.80;51.90
26613;DHT22;14248;57.652;11.908;2023-05-27T16:52:42;31.00;52.50
26613;DHT22;14248;57.652;11.908;2023-05-27T16:55:08;31.20;52.10
26613;DHT22;14248;57.652;11.908;2023-05-27T17:00:02;31.20;51.80
26613;DHT22;14248;57.652;11.908;2023-05-27T17:02:28;31.30;51.10
26613;DHT22;14248;57.652;11.908;2023-05-27T17:04:54;31.20;51.60
26613;DHT22;14248;57.652;11.908;2023-05-27T17:07:20;31.00;51.90
26613;DHT22;14248;57.652;11.908;2023-05-27T17:09:46;30.70;51.90
26613;DHT22;14248;57.652;11.908;2023-05-27T17:12:12;30.40;52.50
26613;DHT22;14248;57.652;11.908;2023-05-27T17:58:31;30.10;52.70
